sensor_id;sensor_type;location;lat;lon;timestamp;temperature;humidity
8856;DHT22;4464;50.882;4.730;2024-02-23T00:00:54;6.20;99.90
8856;DHT22;4464;50.882;4.730;2024-02-23T00:03:22;6.20;99.90
8856;DHT22;4464;50.882;4.730;2024-02-23T00:05:48;6.10;99.90
8856;DHT22;4464;50.882;4.730;2024-02-23T00:08:16;6.10;99.90
8856;DHT22;4464;50.882;4.730;2024-02-23T00:10:41;6.00;99.90
8856;DHT22;4464;50.882;4.730;2024-02-23T00:13:10;5.90;99.90
8856;DHT22;4464;50.882;4.730;2024-02-23T00:15:35;5.90;99.90
8856;DHT22;4464;50.882;4.730;2024-02-23T00:18:01;5.90;99.90
8856;DHT22;4464;50.882;4.730;2024-02-23T00:20:29;6.00;99.90
8856;DHT22;4464;50.882;4.730;2024-02-23T00:22:55;5.90;99.90
8856;DHT22;4464;50.882;4.730;2024-02-23T00:25:21;5.90;99.90
8856;DHT22;4464;50.882;4.730;2024-02-23T00:27:48;6.00;99.90
8856;DHT22;4464;50.882;4.730;2024-02-23T00:30:14;6.00;99.90
8856;DHT22;4464;50.882;4.730;2024-02-23T00:32:40;5.90;99.90
8856;DHT22;4464;50.882;4.730;2024-02-23T00:35:06;5.90;99.90
8856;DHT22;4464;50.882;4.730;2024-02-23T00:37:32;6.00;99.90
8856;DHT22;4464;50.882;4.730;2024-02-23T00:40:05;6.00;99.90
8856;DHT22;4464;50.882;4.730;2024-02-23T00:42:31;6.00;99.90
8856;DHT22;4464;50.882;4.730;2024-02-23T00:45:00;6.00;99.90
8856;DHT22;4464;50.882;4.730;2024-02-23T00:47:26;6.00;99.90
8856;DHT22;4464;50.882;4.730;2024-02-23T00:49:52;6.00;99.90
8856;DHT22;4464;50.882;4.730;2024-02-23T00:52:18;5.90;99.90
8856;DHT22;4464;50.882;4.730;2024-02-23T00:54:43;5.90;99.90
8856;DHT22;4464;50.882;4.730;2024-02-23T00:57:09;5.90;99.90
8856;DHT22;4464;50.882;4.730;2024-02-23T00:59:37;5.90;99.90
8856;DHT22;4464;50.882;4.730;2024-02-23T01:02:03;6.00;99.90
8856;DHT22;4464;50.882;4.730;2024-02-23T01:04:31;5.90;99.90
8856;DHT22;4464;50.882;4.730;2024-02-23T01:06:58;5.80;99.90
8856;DHT22;4464;50.882;4.730;2024-02-23T01:09:23;5.70;99.90
8856;DHT22;4464;50.882;4.730;2024-02-23T01:11:49;5.50;99.90
8856;DHT22;4464;50.882;4.730;2024-02-23T01:14:15;5.50;99.90
8856;DHT22;4464;50.882;4.730;2024-02-23T01:16:41;5.40;99.90
8856;DHT22;4464;50.882;4.730;2024-02-23T01:19:10;5.40;99.90
8856;DHT22;4464;50.882;4.730;2024-02-23T01:21:36;5.40;99.90
8856;DHT22;4464;50.882;4.730;2024-02-23T01:24:01;5.40;99.90
8856;DHT22;4464;50.882;4.730;2024-02-23T01:26:27;5.30;99.90
8856;DHT22;4464;50.882;4.730;2024-02-23T01:28:56;5.30;99.90
8856;DHT22;4464;50.882;4.730;2024-02-23T01:31:24;5.20;99.90
8856;DHT22;4464;50.882;4.730;2024-02-23T01:33:50;5.20;99.90
8856;DHT22;4464;50.882;4.730;2024-02-23T01:36:17;5.10;99.90
8856;DHT22;4464;50.882;4.730;2024-02-23T01:38:43;5.10;99.90
8856;DHT22;4464;50.882;4.730;2024-02-23T01:41:09;5.10;99.90
8856;DHT22;4464;50.882;4.730;2024-02-23T01:43:37;5.10;99.90
8856;DHT22;4464;50.882;4.730;2024-02-23T01:46:05;5.00;99.90
8856;DHT22;4464;50.882;4.730;2024-02-23T01:48:32;5.10;99.90
8856;DHT22;4464;50.882;4.730;2024-02-23T01:50:58;5.00;99.90
8856;DHT22;4464;50.882;4.730;2024-02-23T01:53:25;5.10;99.90
8856;DHT22;4464;50.882;4.730;2024-02-23T01:55:51;5.00;99.90
8856;DHT22;4464;50.882;4.730;2024-02-23T01:58:19;5.10;99.90
8856;DHT22;4464;50.882;4.730;2024-02-23T02:00:45;5.00;99.90
8856;DHT22;4464;50.882;4.730;2024-02-23T02:03:11;5.10;99.90
8856;DHT22;4464;50.882;4.730;2024-02-23T02:05:37;5.00;99.90
8856;DHT22;4464;50.882;4.730;2024-02-23T02:08:03;5.10;99.90
8856;DHT22;4464;50.882;4.730;2024-02-23T02:10:32;5.10;99.90
8856;DHT22;4464;50.882;4.730;2024-02-23T02:13:07;5.20;99.90
8856;DHT22;4464;50.882;4.730;2024-02-23T02:15:37;5.30;99.90
8856;DHT22;4464;50.882;4.730;2024-02-23T02:18:03;5.40;99.90
8856;DHT22;4464;50.882;4.730;2024-02-23T02:20:32;5.50;99.90
8856;DHT22;4464;50.882;4.730;2024-02-23T02:22:59;5.50;99.90
8856;DHT22;4464;50.882;4.730;2024-02-23T02:25:25;5.50;99.90
8856;DHT22;4464;50.882;4.730;2024-02-23T02:27:51;5.50;99.90
8856;DHT22;4464;50.882;4.730;2024-02-23T02:30:16;5.60;99.90
8856;DHT22;4464;50.882;4.730;2024-02-23T02:32:42;5.60;99.90
8856;DHT22;4464;50.882;4.730;2024-02-23T02:35:11;5.70;99.90
8856;DHT22;4464;50.882;4.730;2024-02-23T02:37:37;5.80;99.90
8856;DHT22;4464;50.882;4.730;2024-02-23T02:40:03;5.80;99.90
8856;DHT22;4464;50.882;4.730;2024-02-23T02:42:30;5.90;99.90
8856;DHT22;4464;50.882;4.730;2024-02-23T02:44:56;5.90;99.90
8856;DHT22;4464;50.882;4.730;2024-02-23T02:47:22;5.90;99.90
8856;DHT22;4464;50.882;4.730;2024-02-23T02:49:48;6.00;99.90
8856;DHT22;4464;50.882;4.730;2024-02-23T02:52:14;6.00;99.90
8856;DHT22;4464;50.882;4.730;2024-02-23T02:54:40;6.00;99.90
8856;DHT22;4464;50.882;4.730;2024-02-23T02:57:09;6.00;99.90
8856;DHT22;4464;50.882;4.730;2024-02-23T02:59:35;6.10;99.90
8856;DHT22;4464;50.882;4.730;2024-02-23T03:02:01;6.10;99.90
8856;DHT22;4464;50.882;4.730;2024-02-23T03:04:27;6.10;99.90
8856;DHT22;4464;50.882;4.730;2024-02-23T03:06:53;6.20;99.90
8856;DHT22;4464;50.882;4.730;2024-02-23T03:09:23;6.20;99.90
8856;DHT22;4464;50.882;4.730;2024-02-23T03:11:49;6.20;99.90
8856;DHT22;4464;50.882;4.730;2024-02-23T03:14:14;6.20;99.90
8856;DHT22;4464;50.882;4.730;2024-02-23T03:16:43;6.20;99.90
8856;DHT22;4464;50.882;4.730;2024-02-23T03:19:08;6.20;99.90
8856;DHT22;4464;50.882;4.730;2024-02-23T03:21:34;6.20;99.90
8856;DHT22;4464;50.882;4.730;2024-02-23T03:24:00;6.20;99.90
8856;DHT22;4464;50.882;4.730;2024-02-23T03:26:29;6.20;99.90
8856;DHT22;4464;50.882;4.730;2024-02-23T03:28:54;6.20;99.90
8856;DHT22;4464;50.882;4.730;2024-02-23T03:31:20;6.20;99.90
8856;DHT22;4464;50.882;4.730;2024-02-23T03:33:46;6.20;99.90
8856;DHT22;4464;50.882;4.730;2024-02-23T03:36:12;6.20;99.90
8856;DHT22;4464;50.882;4.730;2024-02-23T03:38:38;6.30;99.90
8856;DHT22;4464;50.882;4.730;2024-02-23T03:41:04;6.30;99.90
8856;DHT22;4464;50.882;4.730;2024-02-23T03:43:30;6.30;99.90
8856;DHT22;4464;50.882;4.730;2024-02-23T03:45:56;6.30;99.90
8856;DHT22;4464;50.882;4.730;2024-02-23T03:48:21;6.30;99.90
8856;DHT22;4464;50.882;4.730;2024-02-23T03:50:50;6.30;99.90
8856;DHT22;4464;50.882;4.730;2024-02-23T03:53:18;6.30;99.90
8856;DHT22;4464;50.882;4.730;2024-02-23T03:55:43;6.30;99.90
8856;DHT22;4464;50.882;4.730;2024-02-23T03:58:09;6.30;99.90
8856;DHT22;4464;50.882;4.730;2024-02-23T04:00:39;6.30;99.90
8856;DHT22;4464;50.882;4.730;2024-02-23T04:03:05;6.20;99.90
8856;DHT22;4464;50.882;4.730;2024-02-23T04:05:31;6.20;99.90
8856;DHT22;4464;50.882;4.730;2024-02-23T04:07:57;6.20;99.90
8856;DHT22;4464;50.882;4.730;2024-02-23T04:10:23;6.20;99.90
8856;DHT22;4464;50.882;4.730;2024-02-23T04:12:49;6.30;99.90
8856;DHT22;4464;50.882;4.730;2024-02-23T04:15:14;6.30;99.90
8856;DHT22;4464;50.882;4.730;2024-02-23T04:17:40;6.30;99.90
8856;DHT22;4464;50.882;4.730;2024-02-23T04:20:09;6.30;99.90
8856;DHT22;4464;50.882;4.730;2024-02-23T04:22:36;6.30;99.90
8856;DHT22;4464;50.882;4.730;2024-02-23T04:25:04;6.30;99.90
8856;DHT22;4464;50.882;4.730;2024-02-23T04:27:31;6.30;99.90
8856;DHT22;4464;50.882;4.730;2024-02-23T04:29:56;6.30;99.90
8856;DHT22;4464;50.882;4.730;2024-02-23T04:32:22;6.20;99.90
8856;DHT22;4464;50.882;4.730;2024-02-23T04:34:51;6.20;99.90
8856;DHT22;4464;50.882;4.730;2024-02-23T04:37:19;6.20;99.90
8856;DHT22;4464;50.882;4.730;2024-02-23T04:39:45;6.20;99.90
8856;DHT22;4464;50.882;4.730;2024-02-23T04:42:11;6.20;99.90
8856;DHT22;4464;50.882;4.730;2024-02-23T04:44:36;6.30;99.90
8856;DHT22;4464;50.882;4.730;2024-02-23T04:47:02;6.30;99.90
8856;DHT22;4464;50.882;4.730;2024-02-23T04:49:28;6.30;99.90
8856;DHT22;4464;50.882;4.730;2024-02-23T04:51:54;6.30;99.90
8856;DHT22;4464;50.882;4.730;2024-02-23T04:54:20;6.40;99.90
8856;DHT22;4464;50.882;4.730;2024-02-23T04:56:47;6.40;99.90
8856;DHT22;4464;50.882;4.730;2024-02-23T04:59:15;6.40;99.90
8856;DHT22;4464;50.882;4.730;2024-02-23T05:01:41;6.40;99.90
8856;DHT22;4464;50.882;4.730;2024-02-23T05:04:09;6.50;99.90
8856;DHT22;4464;50.882;4.730;2024-02-23T05:06:35;6.50;99.90
8856;DHT22;4464;50.882;4.730;2024-02-23T05:09:01;6.50;99.90
8856;DHT22;4464;50.882;4.730;2024-02-23T05:11:32;6.50;99.90
8856;DHT22;4464;50.882;4.730;2024-02-23T05:13:57;6.50;99.90
8856;DHT22;4464;50.882;4.730;2024-02-23T05:16:23;6.50;99.90
8856;DHT22;4464;50.882;4.730;2024-02-23T05:18:52;6.40;99.90
8856;DHT22;4464;50.882;4.730;2024-02-23T05:21:20;6.50;99.90
8856;DHT22;4464;50.882;4.730;2024-02-23T05:23:48;6.50;99.90
8856;DHT22;4464;50.882;4.730;2024-02-23T05:26:14;6.50;99.90
8856;DHT22;4464;50.882;4.730;2024-02-23T05:28:40;6.40;99.90
8856;DHT22;4464;50.882;4.730;2024-02-23T05:31:09;6.40;99.90
8856;DHT22;4464;50.882;4.730;2024-02-23T05:33:35;6.40;99.90
8856;DHT22;4464;50.882;4.730;2024-02-23T05:36:03;6.40;99.90
8856;DHT22;4464;50.882;4.730;2024-02-23T05:38:29;6.40;99.90
8856;DHT22;4464;50.882;4.730;2024-02-23T05:40:57;6.40;99.90
8856;DHT22;4464;50.882;4.730;2024-02-23T05:43:23;6.40;99.90
8856;DHT22;4464;50.882;4.730;2024-02-23T05:45:49;6.40;99.90
8856;DHT22;4464;50.882;4.730;2024-02-23T05:48:17;6.50;99.90
8856;DHT22;4464;50.882;4.730;2024-02-23T05:50:47;6.50;99.90
8856;DHT22;4464;50.882;4.730;2024-02-23T05:53:13;6.50;99.90
8856;DHT22;4464;50.882;4.730;2024-02-23T05:55:39;6.40;99.90
8856;DHT22;4464;50.882;4.730;2024-02-23T05:58:09;6.50;99.90
8856;DHT22;4464;50.882;4.730;2024-02-23T06:00:35;6.50;99.90
8856;DHT22;4464;50.882;4.730;2024-02-23T06:03:01;6.50;99.90
8856;DHT22;4464;50.882;4.730;2024-02-23T06:05:27;6.50;99.90
8856;DHT22;4464;50.882;4.730;2024-02-23T06:07:55;6.50;99.90
8856;DHT22;4464;50.882;4.730;2024-02-23T06:10:21;6.50;99.90
8856;DHT22;4464;50.882;4.730;2024-02-23T06:12:47;6.50;99.90
8856;DHT22;4464;50.882;4.730;2024-02-23T06:15:18;6.50;99.90
8856;DHT22;4464;50.882;4.730;2024-02-23T06:17:44;6.50;99.90
8856;DHT22;4464;50.882;4.730;2024-02-23T06:20:10;6.50;99.90
8856;DHT22;4464;50.882;4.730;2024-02-23T06:22:36;6.50;99.90
8856;DHT22;4464;50.882;4.730;2024-02-23T06:25:03;6.50;99.90
8856;DHT22;4464;50.882;4.730;2024-02-23T06:27:34;6.50;99.90
8856;DHT22;4464;50.882;4.730;2024-02-23T06:30:04;6.50;99.90
8856;DHT22;4464;50.882;4.730;2024-02-23T06:32:33;6.50;99.90
8856;DHT22;4464;50.882;4.730;2024-02-23T06:34:59;6.50;99.90
8856;DHT22;4464;50.882;4.730;2024-02-23T06:37:24;6.50;99.90
8856;DHT22;4464;50.882;4.730;2024-02-23T06:39:50;6.60;99.90
8856;DHT22;4464;50.882;4.730;2024-02-23T06:42:20;6.60;99.90
8856;DHT22;4464;50.882;4.730;2024-02-23T06:44:49;6.60;99.90
8856;DHT22;4464;50.882;4.730;2024-02-23T06:47:15;6.60;99.90
8856;DHT22;4464;50.882;4.730;2024-02-23T06:49:43;6.60;99.90
8856;DHT22;4464;50.882;4.730;2024-02-23T06:52:12;6.60;99.90
8856;DHT22;4464;50.882;4.730;2024-02-23T06:54:38;6.60;99.90
8856;DHT22;4464;50.882;4.730;2024-02-23T06:57:04;6.60;99.90
8856;DHT22;4464;50.882;4.730;2024-02-23T06:59:29;6.60;99.90
8856;DHT22;4464;50.882;4.730;2024-02-23T07:01:55;6.70;99.90
8856;DHT22;4464;50.882;4.730;2024-02-23T07:04:24;6.70;99.90
8856;DHT22;4464;50.882;4.730;2024-02-23T07:06:50;6.70;99.90
8856;DHT22;4464;50.882;4.730;2024-02-23T07:09:16;6.80;99.90
8856;DHT22;4464;50.882;4.730;2024-02-23T07:11:42;6.80;99.90
8856;DHT22;4464;50.882;4.730;2024-02-23T07:14:09;6.80;99.90
8856;DHT22;4464;50.882;4.730;2024-02-23T07:16:38;6.80;99.90
8856;DHT22;4464;50.882;4.730;2024-02-23T07:19:08;6.80;99.90
8856;DHT22;4464;50.882;4.730;2024-02-23T07:21:36;6.80;99.90
8856;DHT22;4464;50.882;4.730;2024-02-23T07:24:02;6.90;99.90
8856;DHT22;4464;50.882;4.730;2024-02-23T07:26:28;6.80;99.90
8856;DHT22;4464;50.882;4.730;2024-02-23T07:28:55;6.90;99.90
8856;DHT22;4464;50.882;4.730;2024-02-23T07:31:21;6.90;99.90
8856;DHT22;4464;50.882;4.730;2024-02-23T07:33:46;7.00;99.90
8856;DHT22;4464;50.882;4.730;2024-02-23T07:36:16;6.90;99.90
8856;DHT22;4464;50.882;4.730;2024-02-23T07:38:47;6.90;99.90
8856;DHT22;4464;50.882;4.730;2024-02-23T07:41:15;6.90;99.90
8856;DHT22;4464;50.882;4.730;2024-02-23T07:43:43;6.90;99.90
8856;DHT22;4464;50.882;4.730;2024-02-23T07:46:10;6.90;99.90
8856;DHT22;4464;50.882;4.730;2024-02-23T07:48:36;6.90;99.90
8856;DHT22;4464;50.882;4.730;2024-02-23T07:51:05;7.00;99.90
8856;DHT22;4464;50.882;4.730;2024-02-23T07:53:31;7.00;99.90
8856;DHT22;4464;50.882;4.730;2024-02-23T07:56:00;7.00;99.90
8856;DHT22;4464;50.882;4.730;2024-02-23T07:58:30;7.00;99.90
8856;DHT22;4464;50.882;4.730;2024-02-23T08:00:56;7.00;99.90
8856;DHT22;4464;50.882;4.730;2024-02-23T08:03:24;7.10;99.90
8856;DHT22;4464;50.882;4.730;2024-02-23T08:05:52;7.10;99.90
8856;DHT22;4464;50.882;4.730;2024-02-23T08:08:18;7.20;99.90
8856;DHT22;4464;50.882;4.730;2024-02-23T08:10:44;7.30;99.90
8856;DHT22;4464;50.882;4.730;2024-02-23T08:13:10;7.30;99.90
8856;DHT22;4464;50.882;4.730;2024-02-23T08:15:36;7.30;99.90
8856;DHT22;4464;50.882;4.730;2024-02-23T08:18:02;7.30;99.90
8856;DHT22;4464;50.882;4.730;2024-02-23T08:20:28;7.30;99.90
8856;DHT22;4464;50.882;4.730;2024-02-23T08:22:54;7.30;99.90
8856;DHT22;4464;50.882;4.730;2024-02-23T08:25:20;7.20;99.90
8856;DHT22;4464;50.882;4.730;2024-02-23T08:27:45;7.30;99.90
8856;DHT22;4464;50.882;4.730;2024-02-23T08:30:13;7.30;99.90
8856;DHT22;4464;50.882;4.730;2024-02-23T08:32:40;7.30;99.90
8856;DHT22;4464;50.882;4.730;2024-02-23T08:35:08;7.10;99.90
8856;DHT22;4464;50.882;4.730;2024-02-23T08:37:37;6.80;99.90
8856;DHT22;4464;50.882;4.730;2024-02-23T08:40:04;6.60;99.90
8856;DHT22;4464;50.882;4.730;2024-02-23T08:42:31;6.50;99.90
8856;DHT22;4464;50.882;4.730;2024-02-23T08:44:57;6.30;99.90
8856;DHT22;4464;50.882;4.730;2024-02-23T08:47:25;6.30;99.90
8856;DHT22;4464;50.882;4.730;2024-02-23T08:50:00;6.20;99.90
8856;DHT22;4464;50.882;4.730;2024-02-23T08:52:26;6.20;99.90
8856;DHT22;4464;50.882;4.730;2024-02-23T08:54:52;6.20;99.90
8856;DHT22;4464;50.882;4.730;2024-02-23T08:57:18;6.10;99.90
8856;DHT22;4464;50.882;4.730;2024-02-23T08:59:46;6.00;99.90
8856;DHT22;4464;50.882;4.730;2024-02-23T09:02:12;6.20;99.90
8856;DHT22;4464;50.882;4.730;2024-02-23T09:04:38;6.50;99.90
8856;DHT22;4464;50.882;4.730;2024-02-23T09:07:05;7.00;99.90
8856;DHT22;4464;50.882;4.730;2024-02-23T09:09:31;7.00;99.90
8856;DHT22;4464;50.882;4.730;2024-02-23T09:11:56;6.80;99.90
8856;DHT22;4464;50.882;4.730;2024-02-23T09:14:22;6.80;99.90
8856;DHT22;4464;50.882;4.730;2024-02-23T09:16:48;6.60;99.90
8856;DHT22;4464;50.882;4.730;2024-02-23T09:19:19;6.60;99.90
8856;DHT22;4464;50.882;4.730;2024-02-23T09:21:45;6.70;99.90
8856;DHT22;4464;50.882;4.730;2024-02-23T09:24:11;6.80;99.90
8856;DHT22;4464;50.882;4.730;2024-02-23T09:26:38;6.90;99.90
8856;DHT22;4464;50.882;4.730;2024-02-23T09:29:05;6.90;99.90
8856;DHT22;4464;50.882;4.730;2024-02-23T09:31:30;6.90;99.90
8856;DHT22;4464;50.882;4.730;2024-02-23T09:34:00;7.00;99.90
8856;DHT22;4464;50.882;4.730;2024-02-23T09:36:26;7.10;99.90
8856;DHT22;4464;50.882;4.730;2024-02-23T09:38:52;7.20;99.90
8856;DHT22;4464;50.882;4.730;2024-02-23T09:41:21;7.30;99.90
8856;DHT22;4464;50.882;4.730;2024-02-23T09:43:47;7.40;99.90
8856;DHT22;4464;50.882;4.730;2024-02-23T09:46:17;7.20;99.90
8856;DHT22;4464;50.882;4.730;2024-02-23T09:48:47;7.20;99.90
8856;DHT22;4464;50.882;4.730;2024-02-23T09:51:14;7.10;99.90
8856;DHT22;4464;50.882;4.730;2024-02-23T09:53:41;7.20;99.90
8856;DHT22;4464;50.882;4.730;2024-02-23T09:56:11;7.90;99.90
8856;DHT22;4464;50.882;4.730;2024-02-23T09:58:39;8.80;99.90
8856;DHT22;4464;50.882;4.730;2024-02-23T10:01:07;9.00;99.90
8856;DHT22;4464;50.882;4.730;2024-02-23T10:03:38;8.80;99.90
8856;DHT22;4464;50.882;4.730;2024-02-23T10:06:04;9.10;99.90
8856;DHT22;4464;50.882;4.730;2024-02-23T10:08:33;9.50;99.90
8856;DHT22;4464;50.882;4.730;2024-02-23T10:11:03;9.50;99.90
8856;DHT22;4464;50.882;4.730;2024-02-23T10:13:29;9.30;99.90
8856;DHT22;4464;50.882;4.730;2024-02-23T10:15:55;9.00;99.90
8856;DHT22;4464;50.882;4.730;2024-02-23T10:18:21;9.40;99.90
8856;DHT22;4464;50.882;4.730;2024-02-23T10:20:47;10.50;99.90
8856;DHT22;4464;50.882;4.730;2024-02-23T10:23:13;10.80;99.90
8856;DHT22;4464;50.882;4.730;2024-02-23T10:25:39;10.20;99.90
8856;DHT22;4464;50.882;4.730;2024-02-23T10:28:07;9.80;99.90
8856;DHT22;4464;50.882;4.730;2024-02-23T10:30:36;9.30;99.90
8856;DHT22;4464;50.882;4.730;2024-02-23T10:33:05;8.70;99.90
8856;DHT22;4464;50.882;4.730;2024-02-23T10:35:32;8.80;99.90
8856;DHT22;4464;50.882;4.730;2024-02-23T10:38:04;8.70;99.90
8856;DHT22;4464;50.882;4.730;2024-02-23T10:40:31;8.80;99.90
8856;DHT22;4464;50.882;4.730;2024-02-23T10:43:02;9.20;99.90
8856;DHT22;4464;50.882;4.730;2024-02-23T10:45:31;9.50;99.90
8856;DHT22;4464;50.882;4.730;2024-02-23T10:48:01;9.70;99.90
8856;DHT22;4464;50.882;4.730;2024-02-23T10:50:28;9.70;99.90
8856;DHT22;4464;50.882;4.730;2024-02-23T10:52:54;9.70;99.90
8856;DHT22;4464;50.882;4.730;2024-02-23T10:55:26;9.50;99.90
8856;DHT22;4464;50.882;4.730;2024-02-23T10:57:55;9.30;99.90
8856;DHT22;4464;50.882;4.730;2024-02-23T11:00:22;9.20;99.90
8856;DHT22;4464;50.882;4.730;2024-02-23T11:02:53;9.30;99.90
8856;DHT22;4464;50.882;4.730;2024-02-23T11:05:20;9.20;99.90
8856;DHT22;4464;50.882;4.730;2024-02-23T11:07:46;9.30;99.90
8856;DHT22;4464;50.882;4.730;2024-02-23T11:10:17;9.50;99.90
8856;DHT22;4464;50.882;4.730;2024-02-23T11:12:43;9.60;99.90
8856;DHT22;4464;50.882;4.730;2024-02-23T11:15:09;9.60;99.90
8856;DHT22;4464;50.882;4.730;2024-02-23T11:17:53;9.60;99.90
8856;DHT22;4464;50.882;4.730;2024-02-23T11:20:22;9.40;99.90
8856;DHT22;4464;50.882;4.730;2024-02-23T11:22:52;9.40;99.90
8856;DHT22;4464;50.882;4.730;2024-02-23T11:25:26;9.50;99.90
8856;DHT22;4464;50.882;4.730;2024-02-23T11:27:54;9.70;99.90
8856;DHT22;4464;50.882;4.730;2024-02-23T11:30:20;9.90;99.90
8856;DHT22;4464;50.882;4.730;2024-02-23T11:32:47;10.00;99.90
8856;DHT22;4464;50.882;4.730;2024-02-23T11:35:15;9.80;99.90
8856;DHT22;4464;50.882;4.730;2024-02-23T11:37:55;9.60;99.90
8856;DHT22;4464;50.882;4.730;2024-02-23T11:40:26;9.30;99.90
8856;DHT22;4464;50.882;4.730;2024-02-23T11:42:52;9.20;99.90
8856;DHT22;4464;50.882;4.730;2024-02-23T11:45:19;9.10;99.90
8856;DHT22;4464;50.882;4.730;2024-02-23T11:47:45;8.90;99.90
8856;DHT22;4464;50.882;4.730;2024-02-23T11:50:11;8.90;99.90
8856;DHT22;4464;50.882;4.730;2024-02-23T11:52:38;8.90;99.90
8856;DHT22;4464;50.882;4.730;2024-02-23T11:55:04;8.90;99.90
8856;DHT22;4464;50.882;4.730;2024-02-23T11:57:34;8.90;99.90
8856;DHT22;4464;50.882;4.730;2024-02-23T12:00:04;9.00;99.90
8856;DHT22;4464;50.882;4.730;2024-02-23T12:02:33;9.20;99.90
8856;DHT22;4464;50.882;4.730;2024-02-23T12:05:02;9.30;99.90
8856;DHT22;4464;50.882;4.730;2024-02-23T12:07:32;9.40;99.90
8856;DHT22;4464;50.882;4.730;2024-02-23T12:09:59;9.30;99.90
8856;DHT22;4464;50.882;4.730;2024-02-23T12:12:27;9.40;99.90
8856;DHT22;4464;50.882;4.730;2024-02-23T12:14:53;9.20;99.90
8856;DHT22;4464;50.882;4.730;2024-02-23T12:17:22;9.10;99.90
8856;DHT22;4464;50.882;4.730;2024-02-23T12:19:48;9.10;99.90
8856;DHT22;4464;50.882;4.730;2024-02-23T12:22:17;9.20;99.90
8856;DHT22;4464;50.882;4.730;2024-02-23T12:24:46;9.40;99.90
8856;DHT22;4464;50.882;4.730;2024-02-23T12:27:17;9.50;99.90
8856;DHT22;4464;50.882;4.730;2024-02-23T12:29:59;9.60;99.90
8856;DHT22;4464;50.882;4.730;2024-02-23T12:32:25;9.80;99.90
8856;DHT22;4464;50.882;4.730;2024-02-23T12:34:55;10.80;99.90
8856;DHT22;4464;50.882;4.730;2024-02-23T12:37:21;10.90;99.90
8856;DHT22;4464;50.882;4.730;2024-02-23T12:39:50;10.80;99.90
8856;DHT22;4464;50.882;4.730;2024-02-23T12:42:15;10.30;99.90
8856;DHT22;4464;50.882;4.730;2024-02-23T12:44:43;10.00;99.90
8856;DHT22;4464;50.882;4.730;2024-02-23T12:47:08;10.80;99.90
8856;DHT22;4464;50.882;4.730;2024-02-23T12:49:35;11.10;99.90
8856;DHT22;4464;50.882;4.730;2024-02-23T12:52:00;11.20;99.90
8856;DHT22;4464;50.882;4.730;2024-02-23T12:54:29;10.90;99.90
8856;DHT22;4464;50.882;4.730;2024-02-23T12:56:54;10.40;99.90
8856;DHT22;4464;50.882;4.730;2024-02-23T12:59:20;10.20;99.90
8856;DHT22;4464;50.882;4.730;2024-02-23T13:01:51;10.50;99.90
8856;DHT22;4464;50.882;4.730;2024-02-23T13:04:19;12.20;99.90
8856;DHT22;4464;50.882;4.730;2024-02-23T13:06:48;13.10;99.90
8856;DHT22;4464;50.882;4.730;2024-02-23T13:09:14;14.00;99.90
8856;DHT22;4464;50.882;4.730;2024-02-23T13:11:40;14.90;99.90
8856;DHT22;4464;50.882;4.730;2024-02-23T13:14:06;15.10;99.90
8856;DHT22;4464;50.882;4.730;2024-02-23T13:16:32;15.10;99.90
8856;DHT22;4464;50.882;4.730;2024-02-23T13:18:57;15.80;99.50
8856;DHT22;4464;50.882;4.730;2024-02-23T13:21:25;16.20;98.30
8856;DHT22;4464;50.882;4.730;2024-02-23T13:23:53;15.40;97.70
8856;DHT22;4464;50.882;4.730;2024-02-23T13:26:19;14.10;99.10
8856;DHT22;4464;50.882;4.730;2024-02-23T13:28:46;12.90;99.90
8856;DHT22;4464;50.882;4.730;2024-02-23T13:31:12;12.30;99.90
8856;DHT22;4464;50.882;4.730;2024-02-23T13:33:41;12.00;99.90
8856;DHT22;4464;50.882;4.730;2024-02-23T13:36:07;11.80;99.90
8856;DHT22;4464;50.882;4.730;2024-02-23T13:38:35;11.50;99.90
8856;DHT22;4464;50.882;4.730;2024-02-23T13:41:05;11.50;99.90
8856;DHT22;4464;50.882;4.730;2024-02-23T13:43:31;11.30;99.90
8856;DHT22;4464;50.882;4.730;2024-02-23T13:45:59;11.00;99.90
8856;DHT22;4464;50.882;4.730;2024-02-23T13:48:27;10.80;99.90
8856;DHT22;4464;50.882;4.730;2024-02-23T13:50:57;10.70;99.90
8856;DHT22;4464;50.882;4.730;2024-02-23T13:53:25;10.60;99.90
8856;DHT22;4464;50.882;4.730;2024-02-23T13:55:51;10.60;99.90
8856;DHT22;4464;50.882;4.730;2024-02-23T13:58:19;10.60;99.90
8856;DHT22;4464;50.882;4.730;2024-02-23T14:00:47;12.20;99.90
8856;DHT22;4464;50.882;4.730;2024-02-23T14:03:17;13.60;99.90
8856;DHT22;4464;50.882;4.730;2024-02-23T14:05:43;14.30;99.90
8856;DHT22;4464;50.882;4.730;2024-02-23T14:08:10;14.60;99.70
8856;DHT22;4464;50.882;4.730;2024-02-23T14:10:36;15.30;99.90
8856;DHT22;4464;50.882;4.730;2024-02-23T14:13:02;14.50;97.60
8856;DHT22;4464;50.882;4.730;2024-02-23T14:15:29;13.20;99.00
8856;DHT22;4464;50.882;4.730;2024-02-23T14:17:54;12.40;99.90
8856;DHT22;4464;50.882;4.730;2024-02-23T14:20:24;12.60;99.90
8856;DHT22;4464;50.882;4.730;2024-02-23T14:22:50;13.70;99.70
8856;DHT22;4464;50.882;4.730;2024-02-23T14:25:20;14.70;98.10
8856;DHT22;4464;50.882;4.730;2024-02-23T14:27:49;15.30;97.00
8856;DHT22;4464;50.882;4.730;2024-02-23T14:30:15;15.30;96.80
8856;DHT22;4464;50.882;4.730;2024-02-23T14:32:41;16.10;95.90
8856;DHT22;4464;50.882;4.730;2024-02-23T14:35:08;16.40;94.90
8856;DHT22;4464;50.882;4.730;2024-02-23T14:37:34;16.00;95.10
8856;DHT22;4464;50.882;4.730;2024-02-23T14:40:00;15.80;95.70
8856;DHT22;4464;50.882;4.730;2024-02-23T14:42:26;15.90;94.40
8856;DHT22;4464;50.882;4.730;2024-02-23T14:44:52;14.60;95.00
8856;DHT22;4464;50.882;4.730;2024-02-23T14:47:18;13.90;95.90
8856;DHT22;4464;50.882;4.730;2024-02-23T14:49:44;13.20;97.00
8856;DHT22;4464;50.882;4.730;2024-02-23T14:52:09;12.70;97.80
8856;DHT22;4464;50.882;4.730;2024-02-23T14:54:35;12.10;98.40
8856;DHT22;4464;50.882;4.730;2024-02-23T14:57:02;11.80;99.10
8856;DHT22;4464;50.882;4.730;2024-02-23T14:59:31;11.70;99.30
8856;DHT22;4464;50.882;4.730;2024-02-23T15:01:57;11.50;99.70
8856;DHT22;4464;50.882;4.730;2024-02-23T15:04:23;11.30;99.80
8856;DHT22;4464;50.882;4.730;2024-02-23T15:06:48;12.90;99.90
8856;DHT22;4464;50.882;4.730;2024-02-23T15:09:17;13.40;98.00
8856;DHT22;4464;50.882;4.730;2024-02-23T15:11:45;13.70;96.90
8856;DHT22;4464;50.882;4.730;2024-02-23T15:14:11;13.20;97.00
8856;DHT22;4464;50.882;4.730;2024-02-23T15:16:37;12.30;97.60
8856;DHT22;4464;50.882;4.730;2024-02-23T15:19:02;11.80;98.60
8856;DHT22;4464;50.882;4.730;2024-02-23T15:21:31;11.60;99.20
8856;DHT22;4464;50.882;4.730;2024-02-23T15:23:57;11.70;99.40
8856;DHT22;4464;50.882;4.730;2024-02-23T15:26:23;11.60;99.60
8856;DHT22;4464;50.882;4.730;2024-02-23T15:28:49;11.90;99.70
8856;DHT22;4464;50.882;4.730;2024-02-23T15:31:15;13.10;98.90
8856;DHT22;4464;50.882;4.730;2024-02-23T15:33:41;14.10;97.50
8856;DHT22;4464;50.882;4.730;2024-02-23T15:36:08;14.20;97.30
8856;DHT22;4464;50.882;4.730;2024-02-23T15:38:35;15.10;97.10
8856;DHT22;4464;50.882;4.730;2024-02-23T15:41:01;15.50;96.30
8856;DHT22;4464;50.882;4.730;2024-02-23T15:43:29;14.50;96.80
8856;DHT22;4464;50.882;4.730;2024-02-23T15:45:55;13.40;97.60
8856;DHT22;4464;50.882;4.730;2024-02-23T15:48:25;11.90;98.70
8856;DHT22;4464;50.882;4.730;2024-02-23T15:50:54;11.40;99.90
8856;DHT22;4464;50.882;4.730;2024-02-23T15:53:23;11.30;99.90
8856;DHT22;4464;50.882;4.730;2024-02-23T15:55:49;12.60;99.90
8856;DHT22;4464;50.882;4.730;2024-02-23T15:58:18;13.70;99.90
8856;DHT22;4464;50.882;4.730;2024-02-23T16:00:45;14.80;99.00
8856;DHT22;4464;50.882;4.730;2024-02-23T16:03:12;15.50;97.90
8856;DHT22;4464;50.882;4.730;2024-02-23T16:05:40;15.10;96.80
8856;DHT22;4464;50.882;4.730;2024-02-23T16:08:08;13.90;97.00
8856;DHT22;4464;50.882;4.730;2024-02-23T16:10:37;12.70;98.50
8856;DHT22;4464;50.882;4.730;2024-02-23T16:13:08;12.00;99.90